createdAt,value
2023-01-29T00:00:49.534Z,29.33
2023-01-29T00:02:50.976Z,31.98
2023-01-29T00:04:52.734Z,32.33
2023-01-29T00:06:54.323Z,32.60
2023-01-29T00:08:55.685Z,33.92
2023-01-29T00:11:05.349Z,33.10
2023-01-29T00:13:06.713Z,35.83
2023-01-29T00:15:08.368Z,31.75
2023-01-29T00:17:10.277Z,30.40
2023-01-29T00:19:11.758Z,33.53
2023-01-29T00:21:15.680Z,28.23
2023-01-29T00:23:17.513Z,33.88
2023-01-29T00:25:18.888Z,32.97
2023-01-29T00:27:20.429Z,30.95
2023-01-29T00:29:21.994Z,29.90
2023-01-29T00:31:25.467Z,36.00
2023-01-29T00:33:28.934Z,39.65
2023-01-29T00:35:30.742Z,33.85
2023-01-29T00:37:32.139Z,36.00
2023-01-29T00:39:47.339Z,37.90
2023-01-29T00:42:07.864Z,34.83
2023-01-29T00:44:27.980Z,34.13
2023-01-29T00:48:30.699Z,28.80
2023-01-29T00:50:32.509Z,36.58
2023-01-29T00:52:36.292Z,29.10
2023-01-29T00:54:37.690Z,34.50
2023-01-29T00:56:39.045Z,35.28
2023-01-29T00:58:40.450Z,37.88
2023-01-29T01:00:41.852Z,34.22
2023-01-29T01:03:02.009Z,35.05
2023-01-29T01:07:07.513Z,31.23
2023-01-29T01:09:28.929Z,36.30
2023-01-29T01:11:30.302Z,34.63
2023-01-29T01:13:33.641Z,36.80
2023-01-29T01:15:38.265Z,34.20
2023-01-29T01:17:39.637Z,39.95
2023-01-29T01:19:41.382Z,36.28
2023-01-29T01:21:48.110Z,34.63
2023-01-29T01:23:51.876Z,38.75
2023-01-29T01:25:53.286Z,41.28
2023-01-29T01:27:55.986Z,37.72
2023-01-29T01:29:57.369Z,31.92
2023-01-29T01:31:59.696Z,38.92
2023-01-29T01:34:01.224Z,35.40
2023-01-29T01:36:03.286Z,35.33
2023-01-29T01:38:04.699Z,38.88
2023-01-29T01:40:18.388Z,34.85
2023-01-29T01:42:20.130Z,34.78
2023-01-29T01:44:58.610Z,37.60
2023-01-29T01:47:01.646Z,29.80
2023-01-29T01:49:18.949Z,34.60
2023-01-29T01:51:24.047Z,35.40
2023-01-29T01:53:34.293Z,39.58
2023-01-29T01:55:41.679Z,37.47
2023-01-29T01:57:46.640Z,40.15
2023-01-29T01:59:53.949Z,38.67
2023-01-29T02:01:55.529Z,42.88
2023-01-29T02:04:22.885Z,36.25
2023-01-29T02:06:49.310Z,40.00
2023-01-29T02:11:16.724Z,31.73
2023-01-29T02:13:19.437Z,33.22
2023-01-29T02:15:20.865Z,37.70
2023-01-29T02:17:22.403Z,44.63
2023-01-29T02:19:37.251Z,38.08
2023-01-29T02:21:54.770Z,39.70
2023-01-29T02:24:16.450Z,34.38
2023-01-29T02:26:47.405Z,35.15
2023-01-29T02:29:21.811Z,35.30
2023-01-29T02:31:39.337Z,34.63
2023-01-29T02:33:43.740Z,35.95
2023-01-29T02:36:04.596Z,41.13
2023-01-29T02:38:27.810Z,32.28
2023-01-29T02:40:35.744Z,39.50
2023-01-29T02:42:57.476Z,40.35
2023-01-29T02:45:04.622Z,35.78
2023-01-29T02:47:15.153Z,36.83
2023-01-29T02:49:29.966Z,32.20
2023-01-29T02:51:41.233Z,32.33
2023-01-29T02:53:54.064Z,35.10
2023-01-29T02:56:03.521Z,34.35
2023-01-29T02:58:13.921Z,36.60
2023-01-29T03:00:22.119Z,34.17
2023-01-29T03:02:33.048Z,37.10
2023-01-29T03:04:43.066Z,38.55
2023-01-29T03:06:56.970Z,39.15
2023-01-29T03:09:08.070Z,38.78
2023-01-29T03:11:15.524Z,35.63
2023-01-29T03:16:04.351Z,35.63
2023-01-29T03:18:11.716Z,33.78
2023-01-29T03:20:18.919Z,39.33
2023-01-29T03:22:23.221Z,37.67
2023-01-29T03:24:55.796Z,42.92
2023-01-29T03:27:19.549Z,35.58
2023-01-29T03:29:40.385Z,35.97
2023-01-29T03:32:00.652Z,36.92
2023-01-29T03:34:09.479Z,44.28
2023-01-29T03:36:17.533Z,45.45
2023-01-29T03:38:20.280Z,39.70
2023-01-29T03:40:21.686Z,43.05
2023-01-29T03:42:34.654Z,41.58
2023-01-29T03:44:57.735Z,38.13
2023-01-29T03:47:05.911Z,42.95
2023-01-29T03:49:19.510Z,44.53
2023-01-29T03:51:38.934Z,44.17
2023-01-29T03:54:04.170Z,39.20
2023-01-29T03:56:18.184Z,46.88
2023-01-29T03:58:36.683Z,41.38
2023-01-29T04:00:50.609Z,41.35
2023-01-29T04:03:00.294Z,39.03
2023-01-29T04:05:12.991Z,38.72
2023-01-29T04:07:18.966Z,42.85
2023-01-29T04:09:25.423Z,45.92
2023-01-29T04:11:27.821Z,43.58
2023-01-29T04:13:33.634Z,46.50
2023-01-29T04:15:42.479Z,43.47
2023-01-29T04:17:49.967Z,47.40
2023-01-29T04:22:04.134Z,37.55
2023-01-29T04:24:07.574Z,41.22
2023-01-29T04:26:23.879Z,42.90
2023-01-29T04:28:45.971Z,43.38
2023-01-29T04:30:57.332Z,42.15
2023-01-29T04:33:25.014Z,44.67
2023-01-29T04:35:30.647Z,45.47
2023-01-29T04:37:56.507Z,46.58
2023-01-29T04:40:16.115Z,42.85
2023-01-29T04:42:37.641Z,44.95
2023-01-29T04:45:06.632Z,44.17
2023-01-29T04:47:23.433Z,47.80
2023-01-29T04:49:46.496Z,45.08
2023-01-29T04:51:57.154Z,46.42
2023-01-29T04:54:32.228Z,47.53
2023-01-29T04:56:44.409Z,46.17
2023-01-29T04:59:14.852Z,46.50
2023-01-29T05:01:19.100Z,46.33
2023-01-29T05:03:24.688Z,44.80
2023-01-29T05:05:27.639Z,46.80
2023-01-29T05:07:30.844Z,49.20
2023-01-29T05:09:34.133Z,46.35
2023-01-29T05:11:37.017Z,52.30
2023-01-29T05:13:41.751Z,49.88
2023-01-29T05:15:56.483Z,48.08
2023-01-29T05:18:01.699Z,45.17
2023-01-29T05:20:03.380Z,49.22
2023-01-29T05:22:06.135Z,49.67
2023-01-29T05:24:25.852Z,52.13
2023-01-29T05:26:46.617Z,50.75
2023-01-29T05:28:47.971Z,51.50
2023-01-29T05:30:55.073Z,48.28
2023-01-29T05:32:56.507Z,48.40
2023-01-29T05:34:57.927Z,49.08
2023-01-29T05:36:59.313Z,53.25
2023-01-29T05:39:00.654Z,49.95
2023-01-29T05:41:01.996Z,52.10
2023-01-29T05:43:04.387Z,51.67
2023-01-29T05:45:06.434Z,50.00
2023-01-29T05:47:07.927Z,53.00
2023-01-29T05:49:09.444Z,51.85
2023-01-29T05:51:10.834Z,53.17
2023-01-29T05:53:12.188Z,57.35
2023-01-29T05:55:13.594Z,49.88
2023-01-29T05:57:15.031Z,51.00
2023-01-29T05:59:16.753Z,55.88
2023-01-29T06:01:23.744Z,55.80
2023-01-29T06:03:25.161Z,52.83
2023-01-29T06:05:26.587Z,51.47
2023-01-29T06:07:28.081Z,49.00
2023-01-29T06:09:29.458Z,53.00
2023-01-29T06:11:30.897Z,54.88
2023-01-29T06:13:32.320Z,56.05
2023-01-29T06:15:33.658Z,49.70
2023-01-29T06:17:35.431Z,54.40
2023-01-29T06:19:36.803Z,52.03
2023-01-29T06:21:38.278Z,49.90
2023-01-29T06:23:40.076Z,52.85
2023-01-29T06:25:41.507Z,50.60
2023-01-29T06:27:42.893Z,55.35
2023-01-29T06:29:44.258Z,52.80
2023-01-29T06:31:45.811Z,52.92
2023-01-29T06:33:47.289Z,60.30
2023-01-29T06:35:48.682Z,52.60
2023-01-29T06:37:50.065Z,54.88
2023-01-29T06:39:51.538Z,54.08
2023-01-29T06:41:52.935Z,51.28
2023-01-29T06:43:54.351Z,51.80
2023-01-29T06:45:57.469Z,50.63
2023-01-29T06:48:01.143Z,54.28
2023-01-29T06:50:03.669Z,48.13
2023-01-29T06:52:05.295Z,48.72
2023-01-29T06:54:08.251Z,54.78
2023-01-29T06:56:09.670Z,55.13
2023-01-29T06:58:12.137Z,55.10
2023-01-29T07:00:15.354Z,49.95
2023-01-29T07:02:17.071Z,52.28
2023-01-29T07:04:18.498Z,47.38
2023-01-29T07:06:20.116Z,49.33
2023-01-29T07:08:22.727Z,52.22
2023-01-29T07:10:24.108Z,54.78
2023-01-29T07:12:25.514Z,56.80
2023-01-29T07:14:26.872Z,56.97
2023-01-29T07:16:28.691Z,53.55
2023-01-29T07:18:31.100Z,54.05
2023-01-29T07:20:32.465Z,51.67
2023-01-29T07:22:33.848Z,55.53
2023-01-29T07:24:35.210Z,51.88
2023-01-29T07:26:36.639Z,50.90
2023-01-29T07:28:39.030Z,51.05
2023-01-29T07:30:40.395Z,52.13
2023-01-29T07:32:42.009Z,50.05
2023-01-29T07:34:43.376Z,50.20
2023-01-29T07:36:44.792Z,49.85
2023-01-29T07:38:49.662Z,52.72
2023-01-29T07:40:54.300Z,49.17
2023-01-29T07:43:00.157Z,53.17
2023-01-29T07:45:01.559Z,47.83
2023-01-29T07:47:02.899Z,51.50
2023-01-29T07:49:04.245Z,57.88
2023-01-29T07:51:05.928Z,52.30
2023-01-29T07:53:07.382Z,50.85
2023-01-29T07:55:09.242Z,51.35
2023-01-29T07:57:10.691Z,52.50
2023-01-29T07:59:12.047Z,54.75
2023-01-29T08:01:13.502Z,52.75
2023-01-29T08:03:17.556Z,55.75
2023-01-29T08:05:19.585Z,51.38
2023-01-29T08:07:21.186Z,53.10
2023-01-29T08:09:22.601Z,51.08
2023-01-29T08:11:23.962Z,58.50
2023-01-29T08:13:25.346Z,54.67
2023-01-29T08:15:27.514Z,52.80
2023-01-29T08:17:28.921Z,53.53
2023-01-29T08:19:30.308Z,49.03
2023-01-29T08:21:31.653Z,52.30
2023-01-29T08:23:33.100Z,53.08
2023-01-29T08:25:36.177Z,46.88
2023-01-29T08:27:37.994Z,48.22
2023-01-29T08:29:39.437Z,50.10
2023-01-29T08:31:40.986Z,59.13
2023-01-29T08:33:44.209Z,50.92
2023-01-29T08:35:49.810Z,48.45
2023-01-29T08:37:59.670Z,50.53
2023-01-29T08:40:01.246Z,49.50
2023-01-29T08:42:02.619Z,50.67
2023-01-29T08:44:04.401Z,58.63
2023-01-29T08:46:07.084Z,55.10
2023-01-29T08:48:09.256Z,46.95
2023-01-29T08:50:11.354Z,49.33
2023-01-29T08:52:12.746Z,51.80
2023-01-29T08:54:14.200Z,49.88
2023-01-29T08:56:16.363Z,47.92
2023-01-29T08:58:18.103Z,48.75
2023-01-29T09:00:19.895Z,45.78
2023-01-29T09:02:21.305Z,49.75
2023-01-29T09:04:22.713Z,50.88
2023-01-29T09:06:24.049Z,53.15
2023-01-29T09:08:25.464Z,46.65
2023-01-29T09:10:26.933Z,50.70
2023-01-29T09:12:28.421Z,48.92
2023-01-29T09:14:29.789Z,54.75
2023-01-29T09:16:31.198Z,54.83
2023-01-29T09:18:32.653Z,50.33
2023-01-29T09:20:34.224Z,49.85
2023-01-29T09:22:36.109Z,50.45
2023-01-29T09:24:37.732Z,49.22
2023-01-29T09:26:40.096Z,48.08
2023-01-29T09:28:41.526Z,46.30
2023-01-29T09:30:43.750Z,50.78
2023-01-29T09:32:54.214Z,46.17
2023-01-29T09:34:56.951Z,49.67
2023-01-29T09:36:58.659Z,49.15
2023-01-29T09:39:00.022Z,47.15
2023-01-29T09:41:04.512Z,54.90
2023-01-29T09:43:20.341Z,47.15
2023-01-29T09:45:27.851Z,44.83
2023-01-29T09:47:31.850Z,50.58
2023-01-29T09:49:39.360Z,50.28
2023-01-29T09:53:58.578Z,45.95
2023-01-29T09:56:09.803Z,46.17
2023-01-29T09:58:30.292Z,47.53
2023-01-29T10:00:35.280Z,46.75
2023-01-29T10:02:50.479Z,45.05
2023-01-29T10:05:00.806Z,52.42
2023-01-29T10:07:16.176Z,48.38
2023-01-29T10:09:20.259Z,50.47
2023-01-29T10:11:27.745Z,47.97
2023-01-29T10:13:37.282Z,47.45
2023-01-29T10:16:15.354Z,44.75
2023-01-29T10:18:47.339Z,44.20
2023-01-29T10:21:22.766Z,50.53
2023-01-29T10:23:29.408Z,44.85
2023-01-29T10:25:33.008Z,44.95
2023-01-29T10:27:38.547Z,46.75
2023-01-29T10:29:43.106Z,47.55
2023-01-29T10:31:49.759Z,42.65
2023-01-29T10:34:01.949Z,45.15
2023-01-29T10:36:08.582Z,46.38
2023-01-29T10:38:33.312Z,44.80
2023-01-29T10:40:46.873Z,40.20
2023-01-29T10:45:23.905Z,43.13
2023-01-29T10:47:45.836Z,44.53
2023-01-29T10:49:49.868Z,40.72
2023-01-29T10:52:01.438Z,46.22
2023-01-29T10:54:15.735Z,39.30
2023-01-29T10:56:47.415Z,43.03
2023-01-29T10:59:01.206Z,38.55
2023-01-29T11:01:02.683Z,42.83
2023-01-29T11:03:28.310Z,42.35
2023-01-29T11:07:35.802Z,41.10
2023-01-29T11:09:46.250Z,39.90
2023-01-29T11:11:57.540Z,40.75
2023-01-29T11:14:07.147Z,39.50
2023-01-29T11:16:09.941Z,37.83
2023-01-29T11:18:15.323Z,37.13
2023-01-29T11:20:34.878Z,40.83
2023-01-29T11:22:36.874Z,43.47
2023-01-29T11:24:38.246Z,40.15
2023-01-29T11:26:42.274Z,39.88
2023-01-29T11:28:46.319Z,38.97
2023-01-29T11:30:47.796Z,35.03
2023-01-29T11:33:08.608Z,35.45
2023-01-29T11:35:15.994Z,38.53
2023-01-29T11:37:17.689Z,40.20
2023-01-29T11:39:21.584Z,37.90
2023-01-29T11:41:25.394Z,38.60
2023-01-29T11:43:26.753Z,40.67
2023-01-29T11:45:32.206Z,36.75
2023-01-29T11:47:33.666Z,37.45
2023-01-29T11:49:35.817Z,41.65
2023-01-29T11:51:40.107Z,38.80
2023-01-29T11:53:49.461Z,37.28
2023-01-29T11:55:51.660Z,38.33
2023-01-29T11:58:01.726Z,40.92
2023-01-29T12:00:27.787Z,35.47
2023-01-29T12:02:35.580Z,36.65
2023-01-29T12:04:39.631Z,36.03
2023-01-29T12:06:45.029Z,32.80
2023-01-29T12:08:54.678Z,33.30
2023-01-29T12:11:25.524Z,32.33
2023-01-29T12:13:28.540Z,34.30
2023-01-29T12:15:30.009Z,33.60
2023-01-29T12:17:37.205Z,29.63
2023-01-29T12:21:51.256Z,36.30
2023-01-29T12:24:24.942Z,32.05
2023-01-29T12:26:40.063Z,34.13
2023-01-29T12:28:55.503Z,29.15
2023-01-29T12:31:18.831Z,39.08
2023-01-29T12:33:32.765Z,30.27
2023-01-29T12:35:45.952Z,33.78
2023-01-29T12:38:01.035Z,28.05
2023-01-29T12:40:02.808Z,24.77
2023-01-29T12:42:19.833Z,33.60
2023-01-29T12:44:31.404Z,37.25
2023-01-29T12:46:43.655Z,35.58
2023-01-29T12:48:46.238Z,40.80
2023-01-29T12:50:50.102Z,38.95
2023-01-29T12:52:57.274Z,34.85
2023-01-29T12:55:05.945Z,36.70
2023-01-29T12:57:19.288Z,36.92
2023-01-29T12:59:28.356Z,38.50
2023-01-29T13:01:39.295Z,33.70
2023-01-29T13:03:56.009Z,38.92
2023-01-29T13:06:02.394Z,36.60
2023-01-29T13:08:09.625Z,36.97
2023-01-29T13:12:18.278Z,32.83
2023-01-29T13:14:25.207Z,31.63
2023-01-29T13:16:31.772Z,33.28
2023-01-29T13:18:37.711Z,37.33
2023-01-29T13:20:39.665Z,35.45
2023-01-29T13:22:43.856Z,30.73
2023-01-29T13:24:55.480Z,35.72
2023-01-29T13:27:04.115Z,30.92
2023-01-29T13:29:05.694Z,32.83
2023-01-29T13:31:22.462Z,31.40
2023-01-29T13:33:24.266Z,32.70
2023-01-29T13:35:25.670Z,30.67
2023-01-29T13:37:32.432Z,29.65
2023-01-29T13:39:37.845Z,32.47
2023-01-29T13:41:43.509Z,29.55
2023-01-29T13:43:50.133Z,27.20
2023-01-29T13:45:53.843Z,28.70
2023-01-29T13:48:10.104Z,28.73
2023-01-29T13:50:17.259Z,28.40
2023-01-29T13:52:33.960Z,29.30
2023-01-29T13:54:35.339Z,28.30
2023-01-29T13:56:39.847Z,28.02
2023-01-29T13:58:44.273Z,27.30
2023-01-29T14:00:49.767Z,30.05
2023-01-29T14:02:54.207Z,29.70
2023-01-29T14:05:29.656Z,28.38
2023-01-29T14:07:43.409Z,26.20
2023-01-29T14:09:44.731Z,31.33
2023-01-29T14:11:48.475Z,29.40
2023-01-29T14:13:52.170Z,27.73
2023-01-29T14:15:59.349Z,31.83
2023-01-29T14:20:20.774Z,27.38
2023-01-29T14:22:28.511Z,27.67
2023-01-29T14:24:31.017Z,26.15
2023-01-29T14:26:34.170Z,31.02
2023-01-29T14:28:35.809Z,28.55
2023-01-29T14:30:37.973Z,33.85
2023-01-29T14:32:40.490Z,26.45
2023-01-29T14:37:14.171Z,29.88
2023-01-29T14:39:43.890Z,28.63
2023-01-29T14:41:45.307Z,28.13
2023-01-29T14:43:46.668Z,32.58
2023-01-29T14:45:49.486Z,30.08
2023-01-29T14:47:50.849Z,28.77
2023-01-29T14:49:54.874Z,32.33
2023-01-29T14:51:57.003Z,27.67
2023-01-29T14:54:25.098Z,32.88
2023-01-29T14:56:33.739Z,30.98
2023-01-29T14:58:46.804Z,29.58
2023-01-29T15:00:53.310Z,32.35
2023-01-29T15:03:01.986Z,29.25
2023-01-29T15:05:10.997Z,30.52
2023-01-29T15:07:38.486Z,30.50
2023-01-29T15:09:47.908Z,36.42
2023-01-29T15:12:03.190Z,31.23
2023-01-29T15:14:23.950Z,31.40
2023-01-29T15:16:31.176Z,31.35
2023-01-29T15:18:41.866Z,30.90
2023-01-29T15:20:44.007Z,29.85
2023-01-29T15:22:45.414Z,27.13
2023-01-29T15:25:01.756Z,32.08
2023-01-29T15:27:03.694Z,31.40
2023-01-29T15:29:05.909Z,32.22
2023-01-29T15:31:13.716Z,29.92
2023-01-29T15:33:15.180Z,30.92
2023-01-29T15:35:34.118Z,33.38
2023-01-29T15:37:37.087Z,29.35
2023-01-29T15:39:43.878Z,28.17
2023-01-29T15:41:46.153Z,28.25
2023-01-29T15:43:50.373Z,30.40
2023-01-29T15:45:55.420Z,30.85
2023-01-29T15:48:20.326Z,27.58
2023-01-29T15:50:21.954Z,28.15
2023-01-29T15:52:30.455Z,31.17
2023-01-29T15:54:34.302Z,25.55
2023-01-29T15:56:43.426Z,23.75
2023-01-29T15:58:48.491Z,27.25
2023-01-29T16:00:55.702Z,29.52
2023-01-29T16:04:59.334Z,21.42
2023-01-29T16:07:01.951Z,23.17
2023-01-29T16:09:04.969Z,21.42
2023-01-29T16:11:07.664Z,26.77
2023-01-29T16:13:24.079Z,21.23
2023-01-29T16:15:34.638Z,26.02
2023-01-29T16:17:40.811Z,24.95
2023-01-29T16:19:42.279Z,23.05
2023-01-29T16:21:45.859Z,22.67
2023-01-29T16:23:54.283Z,22.92
2023-01-29T16:26:01.281Z,20.98
2023-01-29T16:28:05.379Z,24.95
2023-01-29T16:30:07.453Z,26.50
2023-01-29T16:32:09.615Z,25.45
2023-01-29T16:34:27.594Z,31.80
2023-01-29T16:36:29.000Z,25.63
2023-01-29T16:38:33.534Z,21.90
2023-01-29T16:40:37.895Z,23.63
2023-01-29T16:42:41.455Z,21.15
2023-01-29T16:44:58.209Z,25.15
2023-01-29T16:47:11.301Z,22.80
2023-01-29T16:49:30.884Z,22.75
2023-01-29T16:51:39.718Z,27.67
2023-01-29T16:53:53.537Z,22.77
2023-01-29T16:56:05.353Z,23.05
2023-01-29T16:58:16.569Z,25.52
2023-01-29T17:00:23.019Z,28.42
2023-01-29T17:02:30.455Z,32.17
2023-01-29T17:04:33.052Z,29.05
2023-01-29T17:06:35.047Z,25.65
2023-01-29T17:08:37.094Z,23.95
2023-01-29T17:10:38.500Z,26.88
2023-01-29T17:12:39.976Z,28.30
2023-01-29T17:14:53.503Z,28.83
2023-01-29T17:19:17.976Z,26.50
2023-01-29T17:21:19.479Z,27.65
2023-01-29T17:23:22.022Z,28.17
2023-01-29T17:25:23.699Z,27.13
2023-01-29T17:27:25.153Z,28.98
2023-01-29T17:29:30.065Z,27.08
2023-01-29T17:31:31.630Z,27.10
2023-01-29T17:33:34.403Z,28.13
2023-01-29T17:35:36.070Z,28.63
2023-01-29T17:37:37.428Z,29.42
2023-01-29T17:39:39.325Z,28.40
2023-01-29T17:41:47.331Z,29.40
2023-01-29T17:43:48.835Z,33.33
2023-01-29T17:45:50.293Z,29.05
2023-01-29T17:47:51.838Z,30.38
2023-01-29T17:49:53.386Z,29.45
2023-01-29T17:51:56.864Z,32.80
2023-01-29T17:53:58.487Z,31.08
2023-01-29T17:55:59.926Z,32.55
2023-01-29T17:58:01.385Z,29.60
2023-01-29T18:00:02.876Z,32.85
2023-01-29T18:02:04.354Z,25.80
2023-01-29T18:04:05.914Z,31.55
2023-01-29T18:06:08.986Z,30.05
2023-01-29T18:08:31.103Z,29.42
2023-01-29T18:10:32.466Z,32.42
2023-01-29T18:12:33.908Z,27.67
2023-01-29T18:14:35.257Z,27.75
2023-01-29T18:16:37.422Z,26.08
2023-01-29T18:18:40.230Z,29.73
2023-01-29T18:20:41.765Z,27.52
2023-01-29T18:22:43.245Z,29.02
2023-01-29T18:24:44.787Z,31.08
2023-01-29T18:26:47.307Z,31.42
2023-01-29T18:28:49.750Z,31.63
2023-01-29T18:30:51.433Z,25.45
2023-01-29T18:32:53.763Z,30.77
2023-01-29T18:34:55.112Z,29.08
2023-01-29T18:36:56.513Z,28.92
2023-01-29T18:38:58.244Z,29.33
2023-01-29T18:41:10.359Z,27.52
2023-01-29T18:43:11.728Z,27.95
2023-01-29T18:45:15.228Z,26.52
2023-01-29T18:47:17.857Z,25.88
2023-01-29T18:49:19.235Z,22.38
2023-01-29T18:51:20.621Z,24.83
2023-01-29T18:53:22.096Z,24.85
2023-01-29T18:55:23.889Z,24.50
2023-01-29T18:58:27.337Z,19.40
2023-01-29T18:59:46.627Z,20.42
2023-01-29T19:01:48.185Z,22.80
2023-01-29T19:03:49.729Z,22.20
2023-01-29T19:05:51.304Z,23.80
2023-01-29T19:07:52.663Z,24.10
2023-01-29T19:09:54.086Z,22.38
2023-01-29T19:11:55.588Z,21.45
2023-01-29T19:13:56.981Z,23.73
2023-01-29T19:15:58.881Z,21.65
2023-01-29T19:18:00.556Z,23.55
2023-01-29T19:20:03.438Z,21.85
2023-01-29T19:22:04.941Z,19.42
2023-01-29T19:24:09.370Z,22.17
2023-01-29T19:26:11.432Z,22.08
2023-01-29T19:28:13.110Z,21.02
2023-01-29T19:30:14.790Z,21.95
2023-01-29T19:32:16.191Z,21.52
2023-01-29T19:34:17.592Z,23.10
2023-01-29T19:36:19.078Z,21.05
2023-01-29T19:38:21.268Z,20.98
2023-01-29T19:40:23.692Z,19.88
2023-01-29T19:42:25.095Z,22.30
2023-01-29T19:44:26.717Z,21.08
2023-01-29T19:46:30.161Z,24.70
2023-01-29T19:48:31.541Z,23.10
2023-01-29T19:50:33.092Z,23.25
2023-01-29T19:52:51.076Z,24.70
2023-01-29T19:54:53.140Z,23.42
2023-01-29T19:56:54.824Z,24.15
2023-01-29T19:58:57.286Z,22.85
2023-01-29T20:01:05.535Z,21.02
2023-01-29T20:03:06.931Z,27.42
2023-01-29T20:05:11.154Z,22.90
2023-01-29T20:07:12.621Z,31.95
2023-01-29T20:09:14.064Z,23.73
2023-01-29T20:11:21.773Z,26.20
2023-01-29T20:13:23.426Z,23.38
2023-01-29T20:15:24.928Z,22.23
2023-01-29T20:17:26.314Z,27.23
2023-01-29T20:19:27.710Z,21.98
2023-01-29T20:21:29.337Z,21.02
2023-01-29T20:23:37.674Z,25.75
2023-01-29T20:25:40.310Z,22.10
2023-01-29T20:27:41.943Z,20.88
2023-01-29T20:29:45.166Z,23.83
2023-01-29T20:31:46.569Z,24.67
2023-01-29T20:33:48.029Z,24.60
2023-01-29T20:36:00.937Z,22.35
2023-01-29T20:38:03.007Z,25.38
2023-01-29T20:40:04.906Z,25.20
2023-01-29T20:42:06.254Z,22.65
2023-01-29T20:44:08.530Z,22.65
2023-01-29T20:46:10.437Z,20.98
2023-01-29T20:48:12.030Z,24.40
2023-01-29T20:50:15.544Z,25.40
2023-01-29T20:52:17.144Z,24.88
2023-01-29T20:54:18.668Z,24.77
2023-01-29T20:56:23.132Z,24.17
2023-01-29T20:58:40.787Z,23.17
2023-01-29T21:00:42.245Z,22.02
2023-01-29T21:02:45.686Z,24.98
2023-01-29T21:04:47.208Z,29.02
2023-01-29T21:06:48.708Z,23.73
2023-01-29T21:08:50.111Z,21.00
2023-01-29T21:10:54.651Z,24.13
2023-01-29T21:12:56.006Z,26.88
2023-01-29T21:14:57.391Z,23.30
2023-01-29T21:16:58.769Z,25.52
2023-01-29T21:19:00.218Z,24.40
2023-01-29T21:21:01.613Z,24.58
2023-01-29T21:23:06.620Z,23.00
2023-01-29T21:25:08.945Z,21.40
2023-01-29T21:27:10.597Z,22.33
2023-01-29T21:29:13.312Z,22.08
2023-01-29T21:31:16.186Z,20.42
2023-01-29T21:33:17.569Z,23.10
2023-01-29T21:35:18.998Z,19.38
2023-01-29T21:37:20.506Z,23.48
2023-01-29T21:39:24.584Z,24.98
2023-01-29T21:41:44.726Z,24.08
2023-01-29T21:43:46.142Z,24.33
2023-01-29T21:45:58.289Z,28.35
2023-01-29T21:47:59.698Z,24.58
2023-01-29T21:50:01.133Z,28.35
2023-01-29T21:52:02.704Z,28.60
2023-01-29T21:54:04.266Z,26.17
2023-01-29T21:56:06.094Z,24.00
2023-01-29T21:58:07.520Z,23.58
2023-01-29T22:00:11.830Z,26.52
2023-01-29T22:02:15.002Z,30.58
2023-01-29T22:04:16.462Z,24.98
2023-01-29T22:06:17.905Z,26.33
2023-01-29T22:08:20.395Z,27.85
2023-01-29T22:10:22.385Z,27.38
2023-01-29T22:12:24.006Z,25.27
2023-01-29T22:14:25.357Z,27.08
2023-01-29T22:16:26.773Z,22.15
2023-01-29T22:18:28.112Z,28.00
2023-01-29T22:20:30.602Z,24.35
2023-01-29T22:22:32.163Z,23.77
2023-01-29T22:24:33.521Z,26.42
2023-01-29T22:26:35.696Z,26.15
2023-01-29T22:28:37.165Z,27.70
2023-01-29T22:30:38.553Z,27.10
2023-01-29T22:32:39.994Z,28.42
2023-01-29T22:34:41.412Z,31.63
2023-01-29T22:36:42.776Z,31.65
2023-01-29T22:38:44.210Z,29.70
2023-01-29T22:40:50.263Z,33.90
2023-01-29T22:42:51.625Z,29.40
2023-01-29T22:44:53.072Z,30.73
2023-01-29T22:46:54.543Z,31.30
2023-01-29T22:48:56.509Z,23.95
2023-01-29T22:51:11.829Z,27.20
2023-01-29T22:53:13.220Z,26.48
2023-01-29T22:55:14.705Z,31.67
2023-01-29T22:57:16.156Z,28.60
2023-01-29T22:59:17.493Z,28.65
2023-01-29T23:01:20.311Z,30.83
2023-01-29T23:03:21.773Z,31.05
2023-01-29T23:05:23.150Z,29.60
2023-01-29T23:07:24.637Z,27.98
2023-01-29T23:09:26.033Z,30.27
2023-01-29T23:11:27.966Z,27.27
2023-01-29T23:13:29.314Z,26.52
2023-01-29T23:15:30.695Z,30.23
2023-01-29T23:17:32.342Z,26.95
2023-01-29T23:19:33.759Z,29.40
2023-01-29T23:21:35.122Z,27.73
2023-01-29T23:23:37.398Z,31.58
2023-01-29T23:25:57.230Z,32.45
2023-01-29T23:29:59.894Z,25.63
2023-01-29T23:32:04.983Z,30.00
2023-01-29T23:34:06.366Z,31.85
2023-01-29T23:36:08.526Z,35.95
2023-01-29T23:38:09.934Z,32.75
2023-01-29T23:40:11.789Z,36.25
2023-01-29T23:42:13.233Z,31.17
2023-01-29T23:44:14.646Z,36.55
2023-01-29T23:46:16.005Z,30.80
2023-01-29T23:48:17.475Z,31.63
2023-01-29T23:50:19.266Z,25.95
2023-01-29T23:52:20.918Z,34.70
2023-01-29T23:54:22.311Z,32.38
2023-01-29T23:56:23.747Z,32.63
2023-01-29T23:58:25.631Z,29.67
